sensor_id;sensor_type;location;lat;lon;timestamp;P1;durP1;ratioP1;P2;durP2;ratioP2
74528;SDS011;63009;52.584;5.932;2023-08-06T00:00:15;14.57;;;8.37;;
74528;SDS011;63009;52.584;5.932;2023-08-06T00:02:40;13.30;;;8.23;;
74528;SDS011;63009;52.584;5.932;2023-08-06T00:05:05;13.73;;;8.13;;
74528;SDS011;63009;52.584;5.932;2023-08-06T00:07:31;13.73;;;7.38;;
74528;SDS011;63009;52.584;5.932;2023-08-06T00:09:56;13.85;;;7.57;;
74528;SDS011;63009;52.584;5.932;2023-08-06T00:12:22;13.40;;;7.95;;
74528;SDS011;63009;52.584;5.932;2023-08-06T00:14:51;12.88;;;7.88;;
74528;SDS011;63009;52.584;5.932;2023-08-06T00:17:16;14.30;;;8.27;;
74528;SDS011;63009;52.584;5.932;2023-08-06T00:19:42;15.57;;;8.02;;
74528;SDS011;63009;52.584;5.932;2023-08-06T00:22:07;16.10;;;8.80;;
74528;SDS011;63009;52.584;5.932;2023-08-06T00:24:33;15.35;;;8.20;;
74528;SDS011;63009;52.584;5.932;2023-08-06T00:26:59;13.27;;;7.68;;
74528;SDS011;63009;52.584;5.932;2023-08-06T00:29:24;14.83;;;7.97;;
74528;SDS011;63009;52.584;5.932;2023-08-06T00:31:49;15.77;;;7.63;;
74528;SDS011;63009;52.584;5.932;2023-08-06T00:34:15;14.37;;;8.20;;
74528;SDS011;63009;52.584;5.932;2023-08-06T00:36:40;15.07;;;8.00;;
74528;SDS011;63009;52.584;5.932;2023-08-06T00:39:05;17.03;;;7.73;;
74528;SDS011;63009;52.584;5.932;2023-08-06T00:41:32;14.95;;;7.95;;
74528;SDS011;63009;52.584;5.932;2023-08-06T00:43:57;15.68;;;8.73;;
74528;SDS011;63009;52.584;5.932;2023-08-06T00:46:22;13.88;;;8.27;;
74528;SDS011;63009;52.584;5.932;2023-08-06T00:48:48;14.27;;;8.32;;
74528;SDS011;63009;52.584;5.932;2023-08-06T00:51:15;15.90;;;8.63;;
74528;SDS011;63009;52.584;5.932;2023-08-06T00:53:40;16.63;;;8.40;;
74528;SDS011;63009;52.584;5.932;2023-08-06T00:56:06;13.20;;;8.05;;
74528;SDS011;63009;52.584;5.932;2023-08-06T00:58:33;15.20;;;8.15;;
74528;SDS011;63009;52.584;5.932;2023-08-06T01:01:00;15.93;;;7.97;;
74528;SDS011;63009;52.584;5.932;2023-08-06T01:03:25;14.80;;;8.40;;
74528;SDS011;63009;52.584;5.932;2023-08-06T01:05:51;15.23;;;8.03;;
74528;SDS011;63009;52.584;5.932;2023-08-06T01:08:19;14.07;;;7.55;;
74528;SDS011;63009;52.584;5.932;2023-08-06T01:11:14;14.02;;;7.68;;
74528;SDS011;63009;52.584;5.932;2023-08-06T01:13:42;16.05;;;7.55;;
74528;SDS011;63009;52.584;5.932;2023-08-06T01:16:12;14.43;;;7.95;;
74528;SDS011;63009;52.584;5.932;2023-08-06T01:18:40;13.38;;;7.75;;
74528;SDS011;63009;52.584;5.932;2023-08-06T01:21:06;14.02;;;7.93;;
74528;SDS011;63009;52.584;5.932;2023-08-06T01:23:32;13.77;;;8.77;;
74528;SDS011;63009;52.584;5.932;2023-08-06T01:31:32;15.35;;;8.60;;
74528;SDS011;63009;52.584;5.932;2023-08-06T01:34:03;13.60;;;7.70;;
74528;SDS011;63009;52.584;5.932;2023-08-06T01:36:32;15.98;;;8.75;;
74528;SDS011;63009;52.584;5.932;2023-08-06T01:38:57;15.02;;;8.93;;
74528;SDS011;63009;52.584;5.932;2023-08-06T01:41:23;14.38;;;8.30;;
74528;SDS011;63009;52.584;5.932;2023-08-06T01:43:48;14.30;;;8.00;;
74528;SDS011;63009;52.584;5.932;2023-08-06T01:46:13;18.05;;;7.90;;
74528;SDS011;63009;52.584;5.932;2023-08-06T01:48:38;14.73;;;8.57;;
74528;SDS011;63009;52.584;5.932;2023-08-06T01:51:04;14.37;;;7.77;;
74528;SDS011;63009;52.584;5.932;2023-08-06T01:53:30;14.90;;;8.40;;
74528;SDS011;63009;52.584;5.932;2023-08-06T01:55:56;15.13;;;8.15;;
74528;SDS011;63009;52.584;5.932;2023-08-06T01:58:22;15.18;;;8.43;;
74528;SDS011;63009;52.584;5.932;2023-08-06T02:00:47;17.87;;;8.87;;
74528;SDS011;63009;52.584;5.932;2023-08-06T02:03:12;14.47;;;8.13;;
74528;SDS011;63009;52.584;5.932;2023-08-06T02:05:37;16.97;;;9.20;;
74528;SDS011;63009;52.584;5.932;2023-08-06T02:08:03;15.57;;;8.60;;
74528;SDS011;63009;52.584;5.932;2023-08-06T02:10:28;15.35;;;8.68;;
74528;SDS011;63009;52.584;5.932;2023-08-06T02:12:53;14.27;;;8.23;;
74528;SDS011;63009;52.584;5.932;2023-08-06T02:15:19;18.20;;;9.50;;
74528;SDS011;63009;52.584;5.932;2023-08-06T02:17:44;15.73;;;9.97;;
74528;SDS011;63009;52.584;5.932;2023-08-06T02:20:09;13.77;;;8.17;;
74528;SDS011;63009;52.584;5.932;2023-08-06T02:22:34;16.13;;;9.23;;
74528;SDS011;63009;52.584;5.932;2023-08-06T02:25:00;16.13;;;8.57;;
74528;SDS011;63009;52.584;5.932;2023-08-06T02:27:25;15.03;;;8.93;;
74528;SDS011;63009;52.584;5.932;2023-08-06T02:29:50;15.23;;;8.50;;
74528;SDS011;63009;52.584;5.932;2023-08-06T02:32:15;16.60;;;9.03;;
74528;SDS011;63009;52.584;5.932;2023-08-06T02:34:41;15.73;;;8.83;;
74528;SDS011;63009;52.584;5.932;2023-08-06T02:37:06;20.40;;;9.25;;
74528;SDS011;63009;52.584;5.932;2023-08-06T02:39:31;15.63;;;9.07;;
74528;SDS011;63009;52.584;5.932;2023-08-06T02:41:58;17.02;;;8.90;;
74528;SDS011;63009;52.584;5.932;2023-08-06T02:44:26;16.23;;;8.37;;
74528;SDS011;63009;52.584;5.932;2023-08-06T02:46:52;16.42;;;9.55;;
74528;SDS011;63009;52.584;5.932;2023-08-06T02:49:17;16.57;;;9.57;;
74528;SDS011;63009;52.584;5.932;2023-08-06T02:51:44;16.23;;;8.77;;
74528;SDS011;63009;52.584;5.932;2023-08-06T02:54:10;15.82;;;9.32;;
74528;SDS011;63009;52.584;5.932;2023-08-06T02:56:35;18.87;;;9.30;;
74528;SDS011;63009;52.584;5.932;2023-08-06T02:59:00;16.60;;;9.10;;
74528;SDS011;63009;52.584;5.932;2023-08-06T03:01:26;15.27;;;8.80;;
74528;SDS011;63009;52.584;5.932;2023-08-06T03:03:52;15.27;;;9.30;;
74528;SDS011;63009;52.584;5.932;2023-08-06T03:06:17;15.87;;;8.97;;
74528;SDS011;63009;52.584;5.932;2023-08-06T03:08:42;16.00;;;9.07;;
74528;SDS011;63009;52.584;5.932;2023-08-06T03:11:07;15.43;;;8.60;;
74528;SDS011;63009;52.584;5.932;2023-08-06T03:13:33;15.50;;;10.00;;
74528;SDS011;63009;52.584;5.932;2023-08-06T03:15:58;18.10;;;9.00;;
74528;SDS011;63009;52.584;5.932;2023-08-06T03:18:25;17.58;;;9.70;;
74528;SDS011;63009;52.584;5.932;2023-08-06T03:23:18;17.25;;;9.57;;
74528;SDS011;63009;52.584;5.932;2023-08-06T03:25:43;16.10;;;9.00;;
74528;SDS011;63009;52.584;5.932;2023-08-06T03:28:09;15.15;;;8.38;;
74528;SDS011;63009;52.584;5.932;2023-08-06T03:30:34;17.43;;;9.50;;
74528;SDS011;63009;52.584;5.932;2023-08-06T03:33:00;17.83;;;10.18;;
74528;SDS011;63009;52.584;5.932;2023-08-06T03:35:25;16.30;;;8.93;;
74528;SDS011;63009;52.584;5.932;2023-08-06T03:37:50;16.87;;;9.50;;
74528;SDS011;63009;52.584;5.932;2023-08-06T03:40:16;16.63;;;9.80;;
74528;SDS011;63009;52.584;5.932;2023-08-06T03:42:41;17.20;;;9.68;;
74528;SDS011;63009;52.584;5.932;2023-08-06T03:45:06;18.30;;;9.83;;
74528;SDS011;63009;52.584;5.932;2023-08-06T03:47:32;18.73;;;9.48;;
74528;SDS011;63009;52.584;5.932;2023-08-06T03:49:57;17.58;;;9.77;;
74528;SDS011;63009;52.584;5.932;2023-08-06T03:52:23;14.98;;;8.88;;
74528;SDS011;63009;52.584;5.932;2023-08-06T03:54:48;18.43;;;10.50;;
74528;SDS011;63009;52.584;5.932;2023-08-06T03:57:14;18.53;;;10.87;;
74528;SDS011;63009;52.584;5.932;2023-08-06T03:59:39;16.27;;;10.30;;
74528;SDS011;63009;52.584;5.932;2023-08-06T04:02:04;18.93;;;10.87;;
74528;SDS011;63009;52.584;5.932;2023-08-06T04:04:30;18.63;;;10.15;;
74528;SDS011;63009;52.584;5.932;2023-08-06T04:06:55;17.00;;;9.77;;
74528;SDS011;63009;52.584;5.932;2023-08-06T04:09:20;20.47;;;11.40;;
74528;SDS011;63009;52.584;5.932;2023-08-06T04:11:45;19.57;;;10.47;;
74528;SDS011;63009;52.584;5.932;2023-08-06T04:14:11;18.13;;;9.90;;
74528;SDS011;63009;52.584;5.932;2023-08-06T04:16:36;17.13;;;9.93;;
74528;SDS011;63009;52.584;5.932;2023-08-06T04:19:01;17.90;;;10.23;;
74528;SDS011;63009;52.584;5.932;2023-08-06T04:21:26;20.98;;;10.95;;
74528;SDS011;63009;52.584;5.932;2023-08-06T04:23:52;18.20;;;10.90;;
74528;SDS011;63009;52.584;5.932;2023-08-06T04:26:17;18.50;;;11.05;;
74528;SDS011;63009;52.584;5.932;2023-08-06T04:28:42;17.17;;;9.83;;
74528;SDS011;63009;52.584;5.932;2023-08-06T04:31:08;18.45;;;10.30;;
74528;SDS011;63009;52.584;5.932;2023-08-06T04:33:33;19.10;;;10.02;;
74528;SDS011;63009;52.584;5.932;2023-08-06T04:35:59;19.90;;;10.68;;
74528;SDS011;63009;52.584;5.932;2023-08-06T04:38:24;19.08;;;11.27;;
74528;SDS011;63009;52.584;5.932;2023-08-06T04:40:52;19.80;;;10.25;;
74528;SDS011;63009;52.584;5.932;2023-08-06T04:43:18;19.45;;;9.88;;
74528;SDS011;63009;52.584;5.932;2023-08-06T04:45:47;19.98;;;11.02;;
74528;SDS011;63009;52.584;5.932;2023-08-06T04:48:13;17.35;;;10.48;;
74528;SDS011;63009;52.584;5.932;2023-08-06T04:50:42;19.20;;;10.88;;
74528;SDS011;63009;52.584;5.932;2023-08-06T04:53:09;18.60;;;11.18;;
74528;SDS011;63009;52.584;5.932;2023-08-06T04:55:34;16.53;;;9.83;;
74528;SDS011;63009;52.584;5.932;2023-08-06T04:57:59;17.73;;;9.83;;
74528;SDS011;63009;52.584;5.932;2023-08-06T05:00:24;20.43;;;10.37;;
74528;SDS011;63009;52.584;5.932;2023-08-06T05:02:50;20.27;;;10.97;;
74528;SDS011;63009;52.584;5.932;2023-08-06T05:05:15;19.27;;;10.83;;
74528;SDS011;63009;52.584;5.932;2023-08-06T05:07:40;19.10;;;10.43;;
74528;SDS011;63009;52.584;5.932;2023-08-06T05:10:06;19.13;;;10.50;;
74528;SDS011;63009;52.584;5.932;2023-08-06T05:12:31;18.80;;;11.45;;
74528;SDS011;63009;52.584;5.932;2023-08-06T05:14:56;20.20;;;11.07;;
74528;SDS011;63009;52.584;5.932;2023-08-06T05:17:22;19.33;;;11.70;;
74528;SDS011;63009;52.584;5.932;2023-08-06T05:19:48;19.45;;;11.13;;
74528;SDS011;63009;52.584;5.932;2023-08-06T05:22:13;16.83;;;10.85;;
74528;SDS011;63009;52.584;5.932;2023-08-06T05:24:38;17.83;;;11.13;;
74528;SDS011;63009;52.584;5.932;2023-08-06T05:27:04;19.75;;;11.93;;
74528;SDS011;63009;52.584;5.932;2023-08-06T05:29:30;17.38;;;10.32;;
74528;SDS011;63009;52.584;5.932;2023-08-06T05:31:55;18.83;;;9.90;;
74528;SDS011;63009;52.584;5.932;2023-08-06T05:34:20;16.57;;;9.73;;
74528;SDS011;63009;52.584;5.932;2023-08-06T05:36:45;16.87;;;9.67;;
74528;SDS011;63009;52.584;5.932;2023-08-06T05:39:11;19.40;;;10.30;;
74528;SDS011;63009;52.584;5.932;2023-08-06T05:41:36;17.47;;;10.07;;
74528;SDS011;63009;52.584;5.932;2023-08-06T05:44:01;16.37;;;10.37;;
74528;SDS011;63009;52.584;5.932;2023-08-06T05:46:26;17.90;;;10.13;;
74528;SDS011;63009;52.584;5.932;2023-08-06T05:48:52;17.20;;;10.53;;
74528;SDS011;63009;52.584;5.932;2023-08-06T05:51:17;16.40;;;10.00;;
74528;SDS011;63009;52.584;5.932;2023-08-06T05:53:42;15.63;;;9.40;;
74528;SDS011;63009;52.584;5.932;2023-08-06T05:56:08;16.07;;;9.90;;
74528;SDS011;63009;52.584;5.932;2023-08-06T05:58:33;16.10;;;8.70;;
74528;SDS011;63009;52.584;5.932;2023-08-06T06:00:58;16.67;;;9.47;;
74528;SDS011;63009;52.584;5.932;2023-08-06T06:03:23;17.93;;;9.87;;
74528;SDS011;63009;52.584;5.932;2023-08-06T06:05:49;15.75;;;10.32;;
74528;SDS011;63009;52.584;5.932;2023-08-06T06:08:14;17.37;;;10.00;;
74528;SDS011;63009;52.584;5.932;2023-08-06T06:10:39;15.93;;;9.33;;
74528;SDS011;63009;52.584;5.932;2023-08-06T06:13:05;17.97;;;8.97;;
74528;SDS011;63009;52.584;5.932;2023-08-06T06:15:30;17.23;;;9.47;;
74528;SDS011;63009;52.584;5.932;2023-08-06T06:17:55;15.70;;;9.63;;
74528;SDS011;63009;52.584;5.932;2023-08-06T06:20:21;17.75;;;9.65;;
74528;SDS011;63009;52.584;5.932;2023-08-06T06:22:46;19.92;;;8.85;;
74528;SDS011;63009;52.584;5.932;2023-08-06T06:25:12;15.73;;;9.30;;
74528;SDS011;63009;52.584;5.932;2023-08-06T06:27:37;17.52;;;9.05;;
74528;SDS011;63009;52.584;5.932;2023-08-06T06:30:02;18.25;;;9.10;;
74528;SDS011;63009;52.584;5.932;2023-08-06T06:32:29;17.33;;;9.50;;
74528;SDS011;63009;52.584;5.932;2023-08-06T06:34:54;15.32;;;8.73;;
74528;SDS011;63009;52.584;5.932;2023-08-06T06:37:19;16.20;;;9.40;;
74528;SDS011;63009;52.584;5.932;2023-08-06T06:39:45;16.47;;;9.33;;
74528;SDS011;63009;52.584;5.932;2023-08-06T06:42:10;16.23;;;9.77;;
74528;SDS011;63009;52.584;5.932;2023-08-06T06:44:35;15.17;;;9.27;;
74528;SDS011;63009;52.584;5.932;2023-08-06T06:47:00;15.87;;;9.73;;
74528;SDS011;63009;52.584;5.932;2023-08-06T06:49:26;15.00;;;9.10;;
74528;SDS011;63009;52.584;5.932;2023-08-06T06:51:51;16.13;;;9.03;;
74528;SDS011;63009;52.584;5.932;2023-08-06T06:54:16;15.27;;;9.20;;
74528;SDS011;63009;52.584;5.932;2023-08-06T06:56:41;14.90;;;8.50;;
74528;SDS011;63009;52.584;5.932;2023-08-06T06:59:07;15.93;;;10.20;;
74528;SDS011;63009;52.584;5.932;2023-08-06T07:01:32;16.23;;;9.33;;
74528;SDS011;63009;52.584;5.932;2023-08-06T07:03:57;14.43;;;8.93;;
74528;SDS011;63009;52.584;5.932;2023-08-06T07:06:23;15.60;;;9.27;;
74528;SDS011;63009;52.584;5.932;2023-08-06T07:08:48;15.43;;;8.80;;
74528;SDS011;63009;52.584;5.932;2023-08-06T07:11:13;14.47;;;8.50;;
74528;SDS011;63009;52.584;5.932;2023-08-06T07:13:39;16.23;;;8.60;;
74528;SDS011;63009;52.584;5.932;2023-08-06T07:16:04;16.23;;;9.33;;
74528;SDS011;63009;52.584;5.932;2023-08-06T07:18:29;16.13;;;9.40;;
74528;SDS011;63009;52.584;5.932;2023-08-06T07:20:55;14.90;;;8.87;;
74528;SDS011;63009;52.584;5.932;2023-08-06T07:23:21;15.13;;;8.85;;
74528;SDS011;63009;52.584;5.932;2023-08-06T07:25:48;15.13;;;8.27;;
74528;SDS011;63009;52.584;5.932;2023-08-06T07:28:14;15.30;;;8.73;;
74528;SDS011;63009;52.584;5.932;2023-08-06T07:30:40;14.30;;;8.77;;
74528;SDS011;63009;52.584;5.932;2023-08-06T07:33:06;14.95;;;8.18;;
74528;SDS011;63009;52.584;5.932;2023-08-06T07:35:31;14.80;;;8.50;;
74528;SDS011;63009;52.584;5.932;2023-08-06T07:37:57;15.50;;;9.45;;
74528;SDS011;63009;52.584;5.932;2023-08-06T07:40:22;15.20;;;9.00;;
74528;SDS011;63009;52.584;5.932;2023-08-06T07:42:47;13.55;;;8.35;;
74528;SDS011;63009;52.584;5.932;2023-08-06T07:45:13;14.67;;;7.80;;
74528;SDS011;63009;52.584;5.932;2023-08-06T07:47:39;13.68;;;7.45;;
74528;SDS011;63009;52.584;5.932;2023-08-06T07:50:04;14.45;;;8.75;;
74528;SDS011;63009;52.584;5.932;2023-08-06T07:52:30;15.93;;;8.93;;
74528;SDS011;63009;52.584;5.932;2023-08-06T07:54:55;14.00;;;8.00;;
74528;SDS011;63009;52.584;5.932;2023-08-06T07:57:21;13.57;;;7.27;;
74528;SDS011;63009;52.584;5.932;2023-08-06T07:59:46;13.80;;;7.13;;
74528;SDS011;63009;52.584;5.932;2023-08-06T08:02:11;14.27;;;8.07;;
74528;SDS011;63009;52.584;5.932;2023-08-06T08:04:36;16.00;;;8.90;;
74528;SDS011;63009;52.584;5.932;2023-08-06T08:07:02;15.30;;;8.60;;
74528;SDS011;63009;52.584;5.932;2023-08-06T08:09:27;15.82;;;9.13;;
74528;SDS011;63009;52.584;5.932;2023-08-06T08:11:52;16.50;;;8.95;;
74528;SDS011;63009;52.584;5.932;2023-08-06T08:14:18;14.80;;;8.85;;
74528;SDS011;63009;52.584;5.932;2023-08-06T08:16:43;14.47;;;8.40;;
74528;SDS011;63009;52.584;5.932;2023-08-06T08:19:08;17.67;;;8.27;;
74528;SDS011;63009;52.584;5.932;2023-08-06T08:21:34;15.53;;;8.40;;
74528;SDS011;63009;52.584;5.932;2023-08-06T08:24:00;13.93;;;8.48;;
74528;SDS011;63009;52.584;5.932;2023-08-06T08:26:26;13.43;;;8.05;;
74528;SDS011;63009;52.584;5.932;2023-08-06T08:28:52;13.85;;;9.13;;
74528;SDS011;63009;52.584;5.932;2023-08-06T08:31:18;14.68;;;8.10;;
74528;SDS011;63009;52.584;5.932;2023-08-06T08:33:43;14.60;;;8.93;;
74528;SDS011;63009;52.584;5.932;2023-08-06T08:36:08;13.77;;;8.10;;
74528;SDS011;63009;52.584;5.932;2023-08-06T08:38:34;14.98;;;8.80;;
74528;SDS011;63009;52.584;5.932;2023-08-06T08:41:00;14.15;;;8.90;;
74528;SDS011;63009;52.584;5.932;2023-08-06T08:43:25;13.60;;;8.50;;
74528;SDS011;63009;52.584;5.932;2023-08-06T08:45:52;14.30;;;8.60;;
74528;SDS011;63009;52.584;5.932;2023-08-06T08:48:24;14.85;;;9.05;;
74528;SDS011;63009;52.584;5.932;2023-08-06T08:50:49;13.57;;;8.85;;
74528;SDS011;63009;52.584;5.932;2023-08-06T08:53:15;14.10;;;8.82;;
74528;SDS011;63009;52.584;5.932;2023-08-06T08:55:42;13.88;;;8.10;;
74528;SDS011;63009;52.584;5.932;2023-08-06T08:58:09;13.93;;;8.30;;
74528;SDS011;63009;52.584;5.932;2023-08-06T09:00:35;13.82;;;9.05;;
74528;SDS011;63009;52.584;5.932;2023-08-06T09:03:01;14.55;;;9.63;;
74528;SDS011;63009;52.584;5.932;2023-08-06T09:05:30;16.05;;;9.30;;
74528;SDS011;63009;52.584;5.932;2023-08-06T09:07:59;15.18;;;9.32;;
74528;SDS011;63009;52.584;5.932;2023-08-06T09:10:30;15.48;;;9.65;;
74528;SDS011;63009;52.584;5.932;2023-08-06T09:12:56;15.10;;;10.40;;
74528;SDS011;63009;52.584;5.932;2023-08-06T09:15:25;15.70;;;10.38;;
74528;SDS011;63009;52.584;5.932;2023-08-06T09:17:52;16.02;;;10.25;;
74528;SDS011;63009;52.584;5.932;2023-08-06T09:20:18;15.43;;;10.02;;
74528;SDS011;63009;52.584;5.932;2023-08-06T09:22:43;17.42;;;10.63;;
74528;SDS011;63009;52.584;5.932;2023-08-06T09:25:10;16.38;;;10.25;;
74528;SDS011;63009;52.584;5.932;2023-08-06T09:27:36;16.75;;;11.13;;
74528;SDS011;63009;52.584;5.932;2023-08-06T09:30:03;16.30;;;11.32;;
74528;SDS011;63009;52.584;5.932;2023-08-06T09:32:47;16.60;;;11.13;;
74528;SDS011;63009;52.584;5.932;2023-08-06T09:35:19;16.75;;;11.02;;
74528;SDS011;63009;52.584;5.932;2023-08-06T09:37:44;16.77;;;10.85;;
74528;SDS011;63009;52.584;5.932;2023-08-06T09:40:27;17.85;;;11.68;;
74528;SDS011;63009;52.584;5.932;2023-08-06T09:42:54;16.30;;;11.00;;
74528;SDS011;63009;52.584;5.932;2023-08-06T09:45:20;15.98;;;10.85;;
74528;SDS011;63009;52.584;5.932;2023-08-06T09:47:47;15.55;;;10.38;;
74528;SDS011;63009;52.584;5.932;2023-08-06T09:50:19;20.85;;;11.75;;
74528;SDS011;63009;52.584;5.932;2023-08-06T09:52:46;17.58;;;10.70;;
74528;SDS011;63009;52.584;5.932;2023-08-06T09:55:13;14.23;;;10.38;;
74528;SDS011;63009;52.584;5.932;2023-08-06T09:57:40;18.42;;;11.13;;
74528;SDS011;63009;52.584;5.932;2023-08-06T10:00:06;16.52;;;10.65;;
74528;SDS011;63009;52.584;5.932;2023-08-06T10:02:34;14.48;;;9.80;;
74528;SDS011;63009;52.584;5.932;2023-08-06T10:07:27;15.32;;;9.95;;
74528;SDS011;63009;52.584;5.932;2023-08-06T10:09:55;15.80;;;10.02;;
74528;SDS011;63009;52.584;5.932;2023-08-06T10:12:21;15.02;;;9.57;;
74528;SDS011;63009;52.584;5.932;2023-08-06T10:14:49;15.05;;;9.50;;
74528;SDS011;63009;52.584;5.932;2023-08-06T10:17:18;13.52;;;9.65;;
74528;SDS011;63009;52.584;5.932;2023-08-06T10:19:44;14.70;;;8.77;;
74528;SDS011;63009;52.584;5.932;2023-08-06T10:22:11;12.00;;;8.27;;
74528;SDS011;63009;52.584;5.932;2023-08-06T10:24:51;12.63;;;8.38;;
74528;SDS011;63009;52.584;5.932;2023-08-06T10:27:32;11.80;;;8.10;;
74528;SDS011;63009;52.584;5.932;2023-08-06T10:38:04;12.68;;;8.43;;
74528;SDS011;63009;52.584;5.932;2023-08-06T10:40:32;12.95;;;7.82;;
74528;SDS011;63009;52.584;5.932;2023-08-06T10:42:58;13.10;;;8.10;;
74528;SDS011;63009;52.584;5.932;2023-08-06T10:45:25;11.07;;;6.88;;
74528;SDS011;63009;52.584;5.932;2023-08-06T10:47:53;9.85;;;6.13;;
74528;SDS011;63009;52.584;5.932;2023-08-06T10:50:20;10.48;;;6.57;;
74528;SDS011;63009;52.584;5.932;2023-08-06T10:52:46;12.18;;;6.72;;
74528;SDS011;63009;52.584;5.932;2023-08-06T10:55:12;9.48;;;6.05;;
74528;SDS011;63009;52.584;5.932;2023-08-06T10:57:47;13.95;;;7.50;;
74528;SDS011;63009;52.584;5.932;2023-08-06T11:00:13;10.07;;;6.87;;
74528;SDS011;63009;52.584;5.932;2023-08-06T11:02:39;12.75;;;8.50;;
74528;SDS011;63009;52.584;5.932;2023-08-06T11:05:08;12.93;;;7.30;;
74528;SDS011;63009;52.584;5.932;2023-08-06T11:07:37;13.15;;;6.68;;
74528;SDS011;63009;52.584;5.932;2023-08-06T11:10:04;11.10;;;6.30;;
74528;SDS011;63009;52.584;5.932;2023-08-06T11:12:31;10.48;;;6.40;;
74528;SDS011;63009;52.584;5.932;2023-08-06T11:14:57;11.15;;;6.95;;
74528;SDS011;63009;52.584;5.932;2023-08-06T11:17:23;9.00;;;5.47;;
74528;SDS011;63009;52.584;5.932;2023-08-06T11:19:49;9.73;;;5.78;;
74528;SDS011;63009;52.584;5.932;2023-08-06T11:22:15;11.18;;;6.25;;
74528;SDS011;63009;52.584;5.932;2023-08-06T11:24:42;10.30;;;6.40;;
74528;SDS011;63009;52.584;5.932;2023-08-06T11:27:11;10.73;;;6.88;;
74528;SDS011;63009;52.584;5.932;2023-08-06T11:29:40;11.30;;;6.85;;
74528;SDS011;63009;52.584;5.932;2023-08-06T11:32:07;11.05;;;6.90;;
74528;SDS011;63009;52.584;5.932;2023-08-06T11:34:33;13.00;;;7.32;;
74528;SDS011;63009;52.584;5.932;2023-08-06T11:36:58;10.63;;;6.47;;
74528;SDS011;63009;52.584;5.932;2023-08-06T11:39:24;10.05;;;7.03;;
74528;SDS011;63009;52.584;5.932;2023-08-06T11:41:49;11.23;;;6.88;;
74528;SDS011;63009;52.584;5.932;2023-08-06T11:44:15;10.68;;;6.30;;
74528;SDS011;63009;52.584;5.932;2023-08-06T11:46:53;11.45;;;7.35;;
74528;SDS011;63009;52.584;5.932;2023-08-06T11:49:29;10.70;;;6.47;;
74528;SDS011;63009;52.584;5.932;2023-08-06T11:52:15;11.77;;;6.85;;
74528;SDS011;63009;52.584;5.932;2023-08-06T11:54:43;11.15;;;7.03;;
74528;SDS011;63009;52.584;5.932;2023-08-06T11:57:08;10.37;;;6.63;;
74528;SDS011;63009;52.584;5.932;2023-08-06T11:59:36;9.00;;;5.28;;
74528;SDS011;63009;52.584;5.932;2023-08-06T12:02:02;8.55;;;5.13;;
74528;SDS011;63009;52.584;5.932;2023-08-06T12:04:30;10.90;;;5.20;;
74528;SDS011;63009;52.584;5.932;2023-08-06T12:07:04;8.70;;;4.50;;
74528;SDS011;63009;52.584;5.932;2023-08-06T12:09:29;8.30;;;4.50;;
74528;SDS011;63009;52.584;5.932;2023-08-06T12:11:55;8.73;;;4.50;;
74528;SDS011;63009;52.584;5.932;2023-08-06T12:14:20;8.67;;;4.47;;
74528;SDS011;63009;52.584;5.932;2023-08-06T12:16:45;9.97;;;4.53;;
74528;SDS011;63009;52.584;5.932;2023-08-06T12:19:10;8.33;;;4.53;;
74528;SDS011;63009;52.584;5.932;2023-08-06T12:21:36;8.60;;;5.00;;
74528;SDS011;63009;52.584;5.932;2023-08-06T12:24:01;8.13;;;4.33;;
74528;SDS011;63009;52.584;5.932;2023-08-06T12:26:26;8.57;;;4.40;;
74528;SDS011;63009;52.584;5.932;2023-08-06T12:28:51;10.87;;;4.20;;
74528;SDS011;63009;52.584;5.932;2023-08-06T12:31:19;7.93;;;3.97;;
74528;SDS011;63009;52.584;5.932;2023-08-06T12:33:45;8.00;;;3.83;;
74528;SDS011;63009;52.584;5.932;2023-08-06T12:36:10;7.63;;;3.70;;
74528;SDS011;63009;52.584;5.932;2023-08-06T12:38:35;7.57;;;3.87;;
74528;SDS011;63009;52.584;5.932;2023-08-06T12:41:00;8.03;;;3.83;;
74528;SDS011;63009;52.584;5.932;2023-08-06T12:43:26;9.97;;;5.17;;
74528;SDS011;63009;52.584;5.932;2023-08-06T12:45:51;9.47;;;4.17;;
74528;SDS011;63009;52.584;5.932;2023-08-06T12:48:16;9.45;;;4.10;;
74528;SDS011;63009;52.584;5.932;2023-08-06T12:50:42;8.17;;;3.87;;
74528;SDS011;63009;52.584;5.932;2023-08-06T12:53:07;11.10;;;3.80;;
74528;SDS011;63009;52.584;5.932;2023-08-06T12:55:32;9.43;;;3.57;;
74528;SDS011;63009;52.584;5.932;2023-08-06T12:57:57;7.83;;;3.07;;
74528;SDS011;63009;52.584;5.932;2023-08-06T13:00:23;8.73;;;3.37;;
74528;SDS011;63009;52.584;5.932;2023-08-06T13:02:48;8.25;;;3.20;;
74528;SDS011;63009;52.584;5.932;2023-08-06T13:05:13;7.30;;;3.10;;
74528;SDS011;63009;52.584;5.932;2023-08-06T13:07:39;8.50;;;3.60;;
74528;SDS011;63009;52.584;5.932;2023-08-06T13:10:04;7.47;;;3.00;;
74528;SDS011;63009;52.584;5.932;2023-08-06T13:12:30;7.60;;;3.42;;
74528;SDS011;63009;52.584;5.932;2023-08-06T13:14:55;9.00;;;3.15;;
74528;SDS011;63009;52.584;5.932;2023-08-06T13:17:22;8.20;;;3.03;;
74528;SDS011;63009;52.584;5.932;2023-08-06T13:19:47;7.77;;;3.33;;
74528;SDS011;63009;52.584;5.932;2023-08-06T13:22:12;7.50;;;3.20;;
74528;SDS011;63009;52.584;5.932;2023-08-06T13:24:38;9.13;;;3.47;;
74528;SDS011;63009;52.584;5.932;2023-08-06T13:27:03;8.27;;;3.20;;
74528;SDS011;63009;52.584;5.932;2023-08-06T13:29:28;7.90;;;3.30;;
74528;SDS011;63009;52.584;5.932;2023-08-06T13:31:54;8.17;;;3.50;;
74528;SDS011;63009;52.584;5.932;2023-08-06T13:34:19;8.13;;;3.63;;
74528;SDS011;63009;52.584;5.932;2023-08-06T13:36:44;8.23;;;3.60;;
74528;SDS011;63009;52.584;5.932;2023-08-06T13:39:10;7.60;;;3.43;;
74528;SDS011;63009;52.584;5.932;2023-08-06T13:41:36;8.23;;;3.40;;
74528;SDS011;63009;52.584;5.932;2023-08-06T13:44:02;8.70;;;3.47;;
74528;SDS011;63009;52.584;5.932;2023-08-06T13:46:27;8.10;;;3.17;;
74528;SDS011;63009;52.584;5.932;2023-08-06T13:48:53;7.27;;;3.10;;
74528;SDS011;63009;52.584;5.932;2023-08-06T13:51:18;8.23;;;3.10;;
74528;SDS011;63009;52.584;5.932;2023-08-06T13:53:44;8.65;;;3.10;;
74528;SDS011;63009;52.584;5.932;2023-08-06T13:56:10;7.82;;;2.75;;
74528;SDS011;63009;52.584;5.932;2023-08-06T13:58:36;7.78;;;3.17;;
74528;SDS011;63009;52.584;5.932;2023-08-06T14:01:01;7.43;;;3.05;;
74528;SDS011;63009;52.584;5.932;2023-08-06T14:03:27;7.00;;;2.93;;
74528;SDS011;63009;52.584;5.932;2023-08-06T14:05:52;8.37;;;2.70;;
74528;SDS011;63009;52.584;5.932;2023-08-06T14:08:20;8.65;;;2.72;;
74528;SDS011;63009;52.584;5.932;2023-08-06T14:10:45;8.00;;;3.17;;
74528;SDS011;63009;52.584;5.932;2023-08-06T14:13:11;7.95;;;2.60;;
74528;SDS011;63009;52.584;5.932;2023-08-06T14:15:37;7.80;;;2.60;;
74528;SDS011;63009;52.584;5.932;2023-08-06T14:18:04;7.63;;;3.08;;
74528;SDS011;63009;52.584;5.932;2023-08-06T14:20:30;8.30;;;2.93;;
74528;SDS011;63009;52.584;5.932;2023-08-06T14:22:56;7.35;;;2.85;;
74528;SDS011;63009;52.584;5.932;2023-08-06T14:25:21;8.50;;;2.80;;
74528;SDS011;63009;52.584;5.932;2023-08-06T14:27:46;10.35;;;2.95;;
74528;SDS011;63009;52.584;5.932;2023-08-06T14:30:12;8.77;;;3.10;;
74528;SDS011;63009;52.584;5.932;2023-08-06T14:32:37;7.07;;;2.70;;
74528;SDS011;63009;52.584;5.932;2023-08-06T14:35:02;7.10;;;2.70;;
74528;SDS011;63009;52.584;5.932;2023-08-06T14:37:28;8.50;;;2.95;;
74528;SDS011;63009;52.584;5.932;2023-08-06T14:39:53;7.70;;;3.20;;
74528;SDS011;63009;52.584;5.932;2023-08-06T14:42:18;8.57;;;2.75;;
74528;SDS011;63009;52.584;5.932;2023-08-06T14:44:44;6.65;;;2.28;;
74528;SDS011;63009;52.584;5.932;2023-08-06T14:47:09;6.90;;;2.40;;